createdAt,value
2018-01-25T00:00:08.578Z,43.1
2018-01-25T00:02:05.296Z,42.9
2018-01-25T00:04:07.602Z,43.1
2018-01-25T00:06:08.148Z,43.2
2018-01-25T00:08:05.897Z,42.9
2018-01-25T00:10:05.701Z,43.1
2018-01-25T00:12:10.123Z,43.2
2018-01-25T00:14:05.864Z,43.2
2018-01-25T00:16:07.810Z,43.2
2018-01-25T00:18:05.833Z,43.2
2018-01-25T00:20:05.148Z,43.1
2018-01-25T00:22:05.912Z,42.9
2018-01-25T00:24:05.802Z,42.9
2018-01-25T00:26:05.047Z,43
2018-01-25T00:28:05.812Z,42.9
2018-01-25T00:30:07.913Z,42.9
2018-01-25T00:32:08.228Z,43.2
2018-01-25T00:34:05.981Z,43
2018-01-25T00:36:10.860Z,43
2018-01-25T00:38:05.571Z,43
2018-01-25T00:40:05.319Z,43.2
2018-01-25T00:42:15.735Z,43
2018-01-25T00:44:05.453Z,43
2018-01-25T00:46:05.727Z,43.3
2018-01-25T00:48:08.039Z,43
2018-01-25T00:50:08.522Z,43.3
2018-01-25T00:52:05.819Z,43.1
2018-01-25T00:54:05.572Z,43.1
2018-01-25T00:56:07.931Z,43.1
2018-01-25T00:58:05.782Z,43.1
2018-01-25T01:00:07.580Z,43.1
2018-01-25T01:02:08.362Z,43.1
2018-01-25T01:04:05.655Z,43.1
2018-01-25T01:06:12.976Z,43.2
2018-01-25T01:08:05.762Z,43.2
2018-01-25T01:10:06.019Z,43.1
2018-01-25T01:12:08.515Z,43.1
2018-01-25T01:14:07.807Z,43
2018-01-25T01:16:05.731Z,43
2018-01-25T01:18:05.263Z,43.1
2018-01-25T01:20:05.446Z,43.1
2018-01-25T01:22:07.711Z,43.1
2018-01-25T01:24:05.513Z,43.1
2018-01-25T01:26:05.781Z,43.1
2018-01-25T01:28:05.518Z,42.9
2018-01-25T01:30:05.254Z,42.8
2018-01-25T01:32:06.017Z,42.9
2018-01-25T01:34:05.862Z,43.1
2018-01-25T01:36:05.596Z,42.8
2018-01-25T01:38:12.980Z,42.8
2018-01-25T01:40:13.429Z,42.9
2018-01-25T01:42:05.734Z,43.1
2018-01-25T01:44:05.467Z,43
2018-01-25T01:46:05.256Z,43
2018-01-25T01:48:06.031Z,43
2018-01-25T01:50:05.613Z,43.1
2018-01-25T01:52:05.420Z,42.7
2018-01-25T01:54:07.676Z,42.9
2018-01-25T01:56:05.726Z,42.8
2018-01-25T01:58:05.448Z,42.8
2018-01-25T02:00:05.185Z,43.1
2018-01-25T02:02:05.547Z,43
2018-01-25T02:04:05.336Z,43
2018-01-25T02:06:07.578Z,42.8
2018-01-25T02:08:05.339Z,42.7
2018-01-25T02:10:05.078Z,42.7
2018-01-25T02:12:05.890Z,43
2018-01-25T02:14:05.704Z,42.7
2018-01-25T02:16:05.496Z,42.7
2018-01-25T02:18:05.482Z,42.7
2018-01-25T02:20:08.579Z,42.6
2018-01-25T02:22:05.567Z,42.6
2018-01-25T02:24:15.449Z,42.5
2018-01-25T02:26:05.201Z,42.5
2018-01-25T02:28:05.944Z,42.6
2018-01-25T02:30:05.730Z,42.6
2018-01-25T02:32:05.557Z,42.5
2018-01-25T02:34:05.291Z,42.8
2018-01-25T02:36:05.577Z,42.5
2018-01-25T02:38:05.354Z,42.7
2018-01-25T02:40:05.127Z,42.8
2018-01-25T02:42:05.909Z,42.7
2018-01-25T02:44:05.715Z,42.8
2018-01-25T02:46:08.026Z,42.5
2018-01-25T02:48:05.400Z,42.5
2018-01-25T02:50:05.182Z,42.5
2018-01-25T02:52:11.031Z,42.4
2018-01-25T02:54:05.764Z,42.6
2018-01-25T02:56:05.524Z,42.7
2018-01-25T02:58:05.801Z,42.5
2018-01-25T03:00:05.561Z,42.7
2018-01-25T03:02:05.377Z,42.4
2018-01-25T03:04:07.663Z,42.4
2018-01-25T03:06:11.051Z,42.6
2018-01-25T03:08:06.772Z,42.4
2018-01-25T03:10:06.266Z,42.6
2018-01-25T03:12:06.032Z,42.5
2018-01-25T03:14:05.823Z,42.5
2018-01-25T03:16:05.643Z,42.5
2018-01-25T03:18:05.561Z,42.4
2018-01-25T03:20:05.349Z,42.4
2018-01-25T03:22:05.092Z,42.3
2018-01-25T03:24:12.937Z,42.4
2018-01-25T03:26:05.777Z,42.4
2018-01-25T03:28:08.077Z,42.3
2018-01-25T03:30:07.854Z,42.3
2018-01-25T03:32:05.826Z,42.4
2018-01-25T03:34:05.527Z,42.3
2018-01-25T03:36:07.801Z,42.3
2018-01-25T03:38:05.915Z,42.3
2018-01-25T03:40:08.340Z,42.3
2018-01-25T03:42:05.165Z,42.3
2018-01-25T03:44:05.999Z,42.2
2018-01-25T03:46:05.778Z,42.3
2018-01-25T03:48:08.063Z,42.3
2018-01-25T03:50:05.386Z,42.3
2018-01-25T03:52:05.110Z,42.3
2018-01-25T03:54:05.869Z,42.3
2018-01-25T03:56:05.695Z,42.3
2018-01-25T03:58:05.532Z,42.2
2018-01-25T04:00:07.838Z,42.2
2018-01-25T04:02:05.880Z,42.2
2018-01-25T04:04:05.698Z,42.2
2018-01-25T04:06:05.484Z,42.2
2018-01-25T04:08:05.260Z,42.2
2018-01-25T04:10:06.023Z,42.2
2018-01-25T04:12:05.784Z,42.1
2018-01-25T04:14:05.547Z,42.1
2018-01-25T04:16:05.297Z,42.2
2018-01-25T04:18:05.227Z,42.1
2018-01-25T04:20:05.573Z,42.1
2018-01-25T04:22:10.909Z,42.2
2018-01-25T04:24:05.656Z,42.2
2018-01-25T04:26:05.441Z,42.2
2018-01-25T04:28:05.289Z,42.2
2018-01-25T04:30:05.036Z,42.1
2018-01-25T04:32:06.044Z,42.1
2018-01-25T04:34:05.814Z,42.2
2018-01-25T04:36:10.704Z,42.2
2018-01-25T04:38:05.683Z,42.2
2018-01-25T04:40:11.045Z,42.2
2018-01-25T04:42:05.840Z,42.2
2018-01-25T04:44:05.623Z,42.1
2018-01-25T04:46:11.039Z,42.2
2018-01-25T04:48:05.317Z,42.2
2018-01-25T04:50:05.068Z,42.2
2018-01-25T04:52:05.862Z,42.3
2018-01-25T04:54:10.295Z,42.2
2018-01-25T04:56:05.062Z,42.2
2018-01-25T04:58:05.334Z,42.3
2018-01-25T05:00:05.581Z,42.2
2018-01-25T05:02:07.875Z,42.2
2018-01-25T05:04:05.253Z,42.2
2018-01-25T05:06:06.010Z,42.3
2018-01-25T05:08:10.826Z,42.2
2018-01-25T05:10:05.604Z,42.2
2018-01-25T05:12:05.402Z,42.2
2018-01-25T05:14:05.815Z,42.1
2018-01-25T05:16:05.549Z,42.2
2018-01-25T05:18:08.063Z,42.1
2018-01-25T05:20:05.922Z,42.1
2018-01-25T05:22:05.358Z,42.1
2018-01-25T05:24:05.154Z,42.1
2018-01-25T05:26:06.176Z,42.1
2018-01-25T05:28:05.989Z,42.1
2018-01-25T05:30:05.723Z,42.1
2018-01-25T05:32:05.487Z,42.1
2018-01-25T05:34:05.335Z,42.1
2018-01-25T05:36:05.158Z,41.9
2018-01-25T05:38:06.287Z,42.1
2018-01-25T05:40:05.031Z,42.1
2018-01-25T05:42:06.064Z,41.8
2018-01-25T05:44:08.496Z,42
2018-01-25T05:46:05.266Z,41.8
2018-01-25T05:48:05.049Z,42
2018-01-25T05:50:06.043Z,42
2018-01-25T05:52:07.808Z,42
2018-01-25T05:54:05.793Z,41.8
2018-01-25T05:56:10.110Z,42
2018-01-25T05:58:08.482Z,42
2018-01-25T06:00:05.417Z,42
2018-01-25T06:02:05.148Z,42
2018-01-25T06:04:05.913Z,41.9
2018-01-25T06:06:08.255Z,41.8
2018-01-25T06:08:09.577Z,41.8
2018-01-25T06:10:05.310Z,41.8
2018-01-25T06:12:05.069Z,41.7
2018-01-25T06:14:05.889Z,41.8
2018-01-25T06:16:10.702Z,41.8
2018-01-25T06:18:05.673Z,41.8
2018-01-25T06:20:05.961Z,41.8
2018-01-25T06:22:06.037Z,41.7
2018-01-25T06:24:05.873Z,41.8
2018-01-25T06:26:05.652Z,41.8
2018-01-25T06:28:05.610Z,41.5
2018-01-25T06:30:05.379Z,41.6
2018-01-25T06:32:05.113Z,41.5
2018-01-25T06:34:05.862Z,41.6
2018-01-25T06:36:08.173Z,41.6
2018-01-25T06:38:05.911Z,41.6
2018-01-25T06:40:05.661Z,41.7
2018-01-25T06:42:05.384Z,41.6
2018-01-25T06:44:05.160Z,41.6
2018-01-25T06:46:05.626Z,41.4
2018-01-25T06:48:07.974Z,41.4
2018-01-25T06:50:06.097Z,41.6
2018-01-25T06:52:13.472Z,41.4
2018-01-25T06:54:05.269Z,41.4
2018-01-25T06:56:08.636Z,41.5
2018-01-25T06:58:05.540Z,41.5
2018-01-25T07:00:05.297Z,41.4
2018-01-25T07:02:05.362Z,41.4
2018-01-25T07:04:10.168Z,41.5
2018-01-25T07:06:06.050Z,41.5
2018-01-25T07:08:06.106Z,41.5
2018-01-25T07:10:05.942Z,41.5
2018-01-25T07:12:05.676Z,41.2
2018-01-25T07:14:05.455Z,41.4
2018-01-25T07:16:05.470Z,41.2
2018-01-25T07:18:05.484Z,41.3
2018-01-25T07:20:08.089Z,41.2
2018-01-25T07:22:05.841Z,41.2
2018-01-25T07:24:13.155Z,41.2
2018-01-25T07:26:05.918Z,41.2
2018-01-25T07:28:05.746Z,41.3
2018-01-25T07:30:05.602Z,41.3
2018-01-25T07:32:05.671Z,41.3
2018-01-25T07:34:05.396Z,41.3
2018-01-25T07:36:05.183Z,41.3
2018-01-25T07:38:05.970Z,41.4
2018-01-25T07:40:05.737Z,41.3
2018-01-25T07:42:05.740Z,41.3
2018-01-25T07:44:11.118Z,41.1
2018-01-25T07:46:05.460Z,41.1
2018-01-25T07:48:05.250Z,41.1
2018-01-25T07:50:05.986Z,41.1
2018-01-25T07:52:08.399Z,40.2
2018-01-25T07:54:05.780Z,40.4
2018-01-25T07:56:05.560Z,40.3
2018-01-25T07:58:05.376Z,40.5
2018-01-25T08:00:07.779Z,40.5
2018-01-25T08:02:05.784Z,40.5
2018-01-25T08:04:07.866Z,40.7
2018-01-25T08:06:05.639Z,40.7
2018-01-25T08:08:05.401Z,40.7
2018-01-25T08:10:05.253Z,40.7
2018-01-25T08:12:08.509Z,40.7
2018-01-25T08:14:05.515Z,41
2018-01-25T08:16:05.315Z,41
2018-01-25T08:18:05.951Z,41
2018-01-25T08:20:05.960Z,40.9
2018-01-25T08:22:05.720Z,41.1
2018-01-25T08:24:05.237Z,41.1
2018-01-25T08:26:08.521Z,41.1
2018-01-25T08:28:05.287Z,41.1
2018-01-25T08:30:06.014Z,41.3
2018-01-25T08:32:07.824Z,41.3
2018-01-25T08:34:05.091Z,41.3
2018-01-25T08:36:13.437Z,41.3
2018-01-25T08:38:10.776Z,41.3
2018-01-25T08:40:05.792Z,41.5
2018-01-25T08:42:05.534Z,41.6
2018-01-25T08:44:05.275Z,41.7
2018-01-25T08:46:06.042Z,42.1
2018-01-25T08:48:08.352Z,41.6
2018-01-25T08:50:05.156Z,41.5
2018-01-25T08:52:05.914Z,42
2018-01-25T08:54:05.883Z,42
2018-01-25T08:56:05.165Z,42
2018-01-25T08:58:05.410Z,41.8
2018-01-25T09:00:05.275Z,41.9
2018-01-25T09:02:08.414Z,41.8
2018-01-25T09:04:05.169Z,41.8
2018-01-25T09:06:05.710Z,41.9
2018-01-25T09:08:05.738Z,41.9
2018-01-25T09:10:08.131Z,42
2018-01-25T09:12:08.949Z,42
2018-01-25T09:14:05.889Z,42
2018-01-25T09:16:08.392Z,42
2018-01-25T09:18:10.462Z,41.8
2018-01-25T09:20:05.302Z,42.1
2018-01-25T09:22:05.081Z,42.2
2018-01-25T09:24:05.892Z,42.3
2018-01-25T09:26:05.754Z,42.2
2018-01-25T09:28:08.056Z,42.1
2018-01-25T09:30:08.531Z,42.1
2018-01-25T09:32:06.186Z,42.1
2018-01-25T09:34:05.992Z,42.1
2018-01-25T09:36:05.806Z,42.3
2018-01-25T09:38:12.919Z,42.1
2018-01-25T09:40:05.709Z,42.1
2018-01-25T09:42:05.512Z,42.1
2018-01-25T09:44:05.300Z,42
2018-01-25T09:46:12.885Z,42.2
2018-01-25T09:48:10.698Z,42.1
2018-01-25T09:50:07.985Z,42.1
2018-01-25T09:52:05.487Z,42.1
2018-01-25T09:54:05.627Z,42.2
2018-01-25T09:56:05.416Z,42
2018-01-25T09:58:07.714Z,42.5
2018-01-25T10:00:08.121Z,42.3
2018-01-25T10:02:05.916Z,42.4
2018-01-25T10:04:08.392Z,42.3
2018-01-25T10:06:05.100Z,42.3
2018-01-25T10:08:06.107Z,42.2
2018-01-25T10:10:05.871Z,42.2
2018-01-25T10:12:05.734Z,42.1
2018-01-25T10:14:08.311Z,41.9
2018-01-25T10:16:05.333Z,42.1
2018-01-25T10:18:05.278Z,42.2
2018-01-25T10:20:08.577Z,42.3
2018-01-25T10:22:10.423Z,42.5
2018-01-25T10:24:05.186Z,42.5
2018-01-25T10:26:06.286Z,42.6
2018-01-25T10:30:05.103Z,42.5
2018-01-25T10:32:05.839Z,42.4
2018-01-25T10:34:05.563Z,42.3
2018-01-25T10:36:05.276Z,42.3
2018-01-25T10:38:11.373Z,42.5
2018-01-25T10:40:05.134Z,42.5
2018-01-25T10:42:05.951Z,42.5
2018-01-25T10:44:05.685Z,42.2
2018-01-25T10:46:05.524Z,42
2018-01-25T10:48:05.397Z,42.2
2018-01-25T10:50:05.224Z,42
2018-01-25T10:52:08.029Z,42.1
2018-01-25T10:54:06.159Z,42.1
2018-01-25T10:56:05.949Z,42.1
2018-01-25T10:58:05.753Z,42.1
2018-01-25T11:00:05.578Z,42
2018-01-25T11:02:05.413Z,42.2
2018-01-25T11:04:05.144Z,41.8
2018-01-25T11:06:10.927Z,42.1
2018-01-25T11:08:05.266Z,41.8
2018-01-25T11:10:05.302Z,42
2018-01-25T11:12:05.283Z,41.9
2018-01-25T11:14:05.048Z,41.9
2018-01-25T11:16:05.379Z,41.9
2018-01-25T11:18:07.906Z,41.9
2018-01-25T11:20:05.971Z,41.9
2018-01-25T11:22:05.738Z,42
2018-01-25T11:24:05.490Z,42
2018-01-25T11:26:05.817Z,41.9
2018-01-25T11:28:05.667Z,41.9
2018-01-25T11:30:05.457Z,42
2018-01-25T11:32:05.259Z,41.9
2018-01-25T11:34:08.560Z,42.1
2018-01-25T11:36:07.821Z,42.2
2018-01-25T11:38:05.752Z,42.2
2018-01-25T11:40:05.519Z,42
2018-01-25T11:42:05.289Z,42.1
2018-01-25T11:44:06.329Z,42
2018-01-25T11:46:05.146Z,42
2018-01-25T11:48:08.447Z,42.1
2018-01-25T11:50:12.965Z,42
2018-01-25T11:52:05.737Z,42
2018-01-25T11:54:05.569Z,42
2018-01-25T11:56:10.705Z,41.9
2018-01-25T11:58:05.552Z,41.9
2018-01-25T12:00:05.836Z,41.8
2018-01-25T12:02:05.885Z,42.2
2018-01-25T12:04:05.290Z,42.1
2018-01-25T12:06:08.541Z,42.2
2018-01-25T12:08:05.578Z,42.2
2018-01-25T12:10:05.347Z,42
2018-01-25T12:12:05.093Z,41.9
2018-01-25T12:14:06.166Z,41.7
2018-01-25T12:16:05.953Z,41.9
2018-01-25T12:18:05.851Z,42
2018-01-25T12:20:05.653Z,41.8
2018-01-25T12:22:05.376Z,41.8
2018-01-25T12:24:05.683Z,41.8
2018-01-25T12:26:05.472Z,41.8
2018-01-25T12:28:05.219Z,41.8
2018-01-25T12:30:08.502Z,41.7
2018-01-25T12:32:05.590Z,41.8
2018-01-25T12:34:05.376Z,41.9
2018-01-25T12:36:05.169Z,41.9
2018-01-25T12:38:05.989Z,41.8
2018-01-25T12:40:05.933Z,41.9
2018-01-25T12:42:05.698Z,41.8
2018-01-25T12:44:08.010Z,42
2018-01-25T12:46:05.272Z,42
2018-01-25T12:48:05.677Z,42
2018-01-25T12:50:05.240Z,42
2018-01-25T12:52:08.557Z,41.9
2018-01-25T12:54:07.825Z,41.8
2018-01-25T12:56:05.565Z,41.8
2018-01-25T12:58:05.349Z,41.9
2018-01-25T13:00:05.047Z,41.7
2018-01-25T13:02:05.897Z,41.8
2018-01-25T13:04:08.272Z,41.8
2018-01-25T13:06:06.096Z,41.8
2018-01-25T13:08:05.885Z,41.8
2018-01-25T13:10:05.140Z,41.6
2018-01-25T13:12:07.365Z,41.8
2018-01-25T13:14:07.867Z,41.8
2018-01-25T13:16:05.634Z,41.6
2018-01-25T13:18:05.135Z,41.8
2018-01-25T13:20:05.735Z,42
2018-01-25T13:22:05.194Z,41.9
2018-01-25T13:24:05.954Z,41.9
2018-01-25T13:26:05.699Z,41.9
2018-01-25T13:28:07.976Z,42
2018-01-25T13:30:05.843Z,42.1
2018-01-25T13:32:05.681Z,42.5
2018-01-25T13:34:08.008Z,42.2
2018-01-25T13:36:05.928Z,42.1
2018-01-25T13:38:05.772Z,42.3
2018-01-25T13:40:08.211Z,42.5
2018-01-25T13:42:05.487Z,42.3
2018-01-25T13:44:07.947Z,42.5
2018-01-25T13:46:05.718Z,42.5
2018-01-25T13:48:05.441Z,42.7
2018-01-25T13:50:05.790Z,42.8
2018-01-25T13:52:05.064Z,42.5
2018-01-25T13:54:05.396Z,42.9
2018-01-25T13:56:05.152Z,43.1
2018-01-25T13:58:05.860Z,42.9
2018-01-25T14:00:05.597Z,42.9
2018-01-25T14:02:05.681Z,43.6
2018-01-25T14:04:05.513Z,43.1
2018-01-25T14:06:08.167Z,43
2018-01-25T14:08:06.190Z,43
2018-01-25T14:10:05.962Z,43.4
2018-01-25T14:12:05.985Z,43.7
2018-01-25T14:14:11.011Z,43.7
2018-01-25T14:16:05.704Z,43.8
2018-01-25T14:18:05.670Z,43.8
2018-01-25T14:20:05.437Z,44.3
2018-01-25T14:22:05.733Z,44.2
2018-01-25T14:24:08.061Z,43.8
2018-01-25T14:26:10.862Z,43.9
2018-01-25T14:28:05.639Z,43.9
2018-01-25T14:30:07.995Z,44.3
2018-01-25T14:32:05.728Z,44.3
2018-01-25T14:34:05.462Z,44.1
2018-01-25T14:36:05.193Z,43.8
2018-01-25T14:38:05.493Z,43.6
2018-01-25T14:40:05.859Z,43.7
2018-01-25T14:42:05.635Z,43.7
2018-01-25T14:44:05.377Z,43.3
2018-01-25T14:46:07.648Z,43.4
2018-01-25T14:48:05.411Z,43.4
2018-01-25T14:50:05.248Z,43.5
2018-01-25T14:52:05.994Z,43.7
2018-01-25T14:54:07.790Z,43.8
2018-01-25T14:56:05.562Z,43.8
2018-01-25T14:58:07.886Z,43.8
2018-01-25T15:00:05.676Z,43.8
2018-01-25T15:02:05.466Z,43.8
2018-01-25T15:04:10.952Z,43.2
2018-01-25T15:06:05.781Z,43.1
2018-01-25T15:08:05.845Z,43.3
2018-01-25T15:10:10.833Z,43.2
2018-01-25T15:12:05.710Z,43.1
2018-01-25T15:14:05.841Z,43.1
2018-01-25T15:16:08.203Z,43.2
2018-01-25T15:18:05.373Z,43.2
2018-01-25T15:20:10.267Z,43.1
2018-01-25T15:22:05.078Z,43.1
2018-01-25T15:24:08.610Z,43.2
2018-01-25T15:26:05.642Z,43.2
2018-01-25T15:28:08.435Z,43.3
2018-01-25T15:30:05.726Z,43.3
2018-01-25T15:32:05.565Z,43.1
2018-01-25T15:34:05.703Z,42.8
2018-01-25T15:36:08.505Z,42.9
2018-01-25T15:38:10.717Z,42.9
2018-01-25T15:40:05.476Z,42.9
2018-01-25T15:42:10.297Z,42.8
2018-01-25T15:44:05.053Z,42.8
2018-01-25T15:46:07.879Z,42.8
2018-01-25T15:48:13.267Z,42.8
2018-01-25T15:50:05.222Z,42.8
2018-01-25T15:52:11.126Z,42.5
2018-01-25T15:54:06.017Z,42.7
2018-01-25T15:56:05.302Z,42.8
2018-01-25T15:58:05.639Z,42.8
2018-01-25T16:00:08.535Z,42.8
2018-01-25T16:02:05.956Z,42.8
2018-01-25T16:04:05.941Z,42.4
2018-01-25T16:06:05.926Z,42.5
2018-01-25T16:08:06.024Z,42.4
2018-01-25T16:10:07.652Z,42.2
2018-01-25T16:12:05.923Z,42.5
2018-01-25T16:14:05.980Z,42.3
2018-01-25T16:16:05.762Z,42.4
2018-01-25T16:18:13.166Z,42.4
2018-01-25T16:20:08.218Z,42.4
2018-01-25T16:22:05.155Z,42.4
2018-01-25T16:24:05.178Z,42.5
2018-01-25T16:26:08.206Z,42.4
2018-01-25T16:28:05.938Z,42.5
2018-01-25T16:30:06.393Z,42.5
2018-01-25T16:32:05.694Z,42.5
2018-01-25T16:34:05.091Z,42.3
2018-01-25T16:36:08.373Z,42.3
2018-01-25T16:38:05.113Z,42.3
2018-01-25T16:40:05.382Z,42.3
2018-01-25T16:42:05.134Z,42.3
2018-01-25T16:44:05.957Z,42.3
2018-01-25T16:46:05.453Z,42.3
2018-01-25T16:48:05.166Z,42.4
2018-01-25T16:50:06.232Z,42.3
2018-01-25T16:52:06.095Z,42.4
2018-01-25T16:54:05.619Z,42.4
2018-01-25T16:56:05.690Z,42.4
2018-01-25T16:58:05.478Z,42.4
2018-01-25T17:00:08.053Z,42.2
2018-01-25T17:02:05.856Z,42.4
2018-01-25T17:04:18.279Z,42.2
2018-01-25T17:06:05.157Z,42.2
2018-01-25T17:08:08.244Z,42.2
2018-01-25T17:10:06.032Z,42.2
2018-01-25T17:12:08.368Z,42.3
2018-01-25T17:14:05.432Z,42.3
2018-01-25T17:16:05.692Z,42.2
2018-01-25T17:18:06.130Z,42.3
2018-01-25T17:20:06.187Z,42.3
2018-01-25T17:22:08.233Z,42.3
2018-01-25T17:24:16.104Z,42.3
2018-01-25T17:26:05.860Z,42.3
2018-01-25T17:28:05.580Z,42.3
2018-01-25T17:30:05.374Z,42.3
2018-01-25T17:32:06.035Z,42.3
2018-01-25T17:34:05.786Z,42.3
2018-01-25T17:36:05.011Z,42.3
2018-01-25T17:38:10.946Z,42.1
2018-01-25T17:40:10.994Z,42.1
2018-01-25T17:42:05.277Z,42.1
2018-01-25T17:44:05.404Z,42.1
2018-01-25T17:46:05.386Z,42.1
2018-01-25T17:48:05.162Z,42.3
2018-01-25T17:50:05.399Z,42.1
2018-01-25T17:52:05.184Z,42.1
2018-01-25T17:54:05.897Z,42.1
2018-01-25T17:56:05.859Z,42.1
2018-01-25T17:58:08.158Z,42.1
2018-01-25T18:00:10.995Z,42.1
2018-01-25T18:02:09.474Z,42.1
2018-01-25T18:04:10.272Z,42.1
2018-01-25T18:06:06.103Z,42.1
2018-01-25T18:08:08.135Z,42.1
2018-01-25T18:10:05.982Z,42.1
2018-01-25T18:12:05.249Z,42.1
2018-01-25T18:14:05.493Z,42.1
2018-01-25T18:16:05.697Z,42.1
2018-01-25T18:18:08.221Z,42
2018-01-25T18:20:05.503Z,42
2018-01-25T18:22:05.778Z,42
2018-01-25T18:24:10.637Z,42
2018-01-25T18:26:05.636Z,42
2018-01-25T18:28:05.426Z,42
2018-01-25T18:30:05.188Z,42
2018-01-25T18:32:06.182Z,42
2018-01-25T18:34:05.882Z,42
2018-01-25T18:36:05.610Z,42
2018-01-25T18:38:05.426Z,42
2018-01-25T18:40:05.281Z,42
2018-01-25T18:42:05.561Z,42
2018-01-25T18:44:18.045Z,42
2018-01-25T18:46:08.644Z,42
2018-01-25T18:48:06.012Z,42
2018-01-25T18:50:06.055Z,42
2018-01-25T18:52:05.815Z,41.9
2018-01-25T18:54:05.563Z,41.9
2018-01-25T18:56:12.903Z,42
2018-01-25T18:58:05.140Z,41.9
2018-01-25T19:00:08.382Z,41.9
2018-01-25T19:02:07.693Z,41.9
2018-01-25T19:04:05.947Z,41.9
2018-01-25T19:06:05.721Z,42
2018-01-25T19:08:05.690Z,41.9
2018-01-25T19:10:05.524Z,41.9
2018-01-25T19:12:05.281Z,41.9
2018-01-25T19:14:05.001Z,41.9
2018-01-25T19:16:05.736Z,41.9
2018-01-25T19:18:09.205Z,41.9
2018-01-25T19:20:06.001Z,41.9
2018-01-25T19:22:05.815Z,41.9
2018-01-25T19:24:05.564Z,42
2018-01-25T19:26:05.409Z,41.9
2018-01-25T19:28:05.135Z,41.9
2018-01-25T19:30:05.900Z,41.7
2018-01-25T19:32:08.466Z,41.7
2018-01-25T19:34:05.219Z,41.7
2018-01-25T19:36:11.016Z,41.6
2018-01-25T19:38:05.772Z,41.6
2018-01-25T19:40:05.560Z,41.6
2018-01-25T19:42:05.835Z,41.6
2018-01-25T19:44:05.926Z,41.8
2018-01-25T19:46:05.133Z,41.8
2018-01-25T19:48:05.960Z,41.6
2018-01-25T19:50:08.548Z,41.6
2018-01-25T19:52:05.975Z,41.8
2018-01-25T19:54:15.898Z,41.8
2018-01-25T19:56:06.256Z,41.8
2018-01-25T19:58:06.117Z,42.3
2018-01-25T20:00:05.884Z,41.7
2018-01-25T20:02:05.756Z,41.8
2018-01-25T20:04:05.535Z,41.8
2018-01-25T20:06:05.306Z,41.5
2018-01-25T20:08:05.120Z,41.7
2018-01-25T20:10:05.518Z,41.7
2018-01-25T20:12:05.485Z,41.5
2018-01-25T20:14:05.229Z,41.7
2018-01-25T20:16:11.048Z,41.5
2018-01-25T20:18:08.563Z,41.5
2018-01-25T20:20:10.377Z,41.5
2018-01-25T20:22:07.644Z,41.5
2018-01-25T20:24:05.462Z,41.5
2018-01-25T20:26:05.848Z,41.5
2018-01-25T20:28:05.640Z,41.6
2018-01-25T20:30:05.457Z,41.5
2018-01-25T20:32:07.852Z,41.5
2018-01-25T20:34:05.621Z,41.5
2018-01-25T20:36:05.995Z,41.5
2018-01-25T20:38:06.027Z,41.4
2018-01-25T20:40:08.323Z,41.4
2018-01-25T20:42:13.833Z,41.4
2018-01-25T20:44:05.936Z,41.4
2018-01-25T20:46:06.026Z,41.5
2018-01-25T20:48:05.776Z,41.5
2018-01-25T20:50:05.099Z,41.5
2018-01-25T20:52:08.396Z,41.5
2018-01-25T20:54:07.674Z,41.5
2018-01-25T20:56:05.668Z,41.5
2018-01-25T20:58:05.497Z,41.5
2018-01-25T21:00:05.323Z,41.5
2018-01-25T21:02:07.961Z,41.5
2018-01-25T21:04:06.235Z,41.5
2018-01-25T21:06:06.014Z,41.5
2018-01-25T21:08:05.263Z,41.5
2018-01-25T21:10:06.022Z,41.5
2018-01-25T21:12:05.299Z,41.5
2018-01-25T21:14:05.170Z,41.4
2018-01-25T21:16:05.250Z,41.5
2018-01-25T21:18:07.241Z,41.4
2018-01-25T21:20:08.592Z,41.5
2018-01-25T21:22:05.317Z,41.4
2018-01-25T21:24:05.073Z,41.4
2018-01-25T21:26:05.978Z,41.5
2018-01-25T21:28:05.728Z,41.4
2018-01-25T21:30:05.449Z,41.5
2018-01-25T21:32:05.747Z,41.4
2018-01-25T21:34:05.347Z,41.4
2018-01-25T21:36:05.113Z,41.4
2018-01-25T21:38:06.146Z,41.4
2018-01-25T21:40:05.884Z,41.4
2018-01-25T21:42:10.692Z,41.4
2018-01-25T21:44:05.753Z,41.4
2018-01-25T21:46:05.533Z,41.4
2018-01-25T21:48:05.288Z,41.3
2018-01-25T21:50:07.577Z,41.3
2018-01-25T21:52:06.355Z,41.3
2018-01-25T21:54:05.147Z,41.3
2018-01-25T21:56:05.733Z,41.3
2018-01-25T21:58:05.619Z,41.3
2018-01-25T22:00:05.626Z,41.3
2018-01-25T22:02:13.054Z,41.3
2018-01-25T22:04:05.353Z,41.3
2018-01-25T22:06:07.817Z,41.3
2018-01-25T22:08:05.479Z,41.3
2018-01-25T22:10:05.256Z,41.3
2018-01-25T22:12:05.246Z,41.3
2018-01-25T22:14:10.312Z,41.3
2018-01-25T22:16:05.476Z,41.1
2018-01-25T22:18:05.719Z,41.3
2018-01-25T22:20:06.785Z,41.1
2018-01-25T22:22:05.509Z,41.1
2018-01-25T22:24:05.562Z,41.3
2018-01-25T22:26:05.419Z,41.3
2018-01-25T22:28:07.983Z,41.1
2018-01-25T22:30:05.720Z,41.1
2018-01-25T22:32:08.075Z,41.3
2018-01-25T22:34:08.391Z,41.1
2018-01-25T22:36:05.160Z,41.1
2018-01-25T22:38:06.187Z,41.1
2018-01-25T22:40:05.444Z,41.1
2018-01-25T22:42:05.215Z,41.3
2018-01-25T22:44:05.980Z,41.1
2018-01-25T22:46:08.372Z,41.1
2018-01-25T22:48:05.236Z,41.1
2018-01-25T22:50:06.326Z,41.3
2018-01-25T22:52:05.636Z,41.1
2018-01-25T22:54:08.223Z,41.3
2018-01-25T22:56:06.012Z,41.1
2018-01-25T22:58:05.850Z,41.3
2018-01-25T23:00:05.651Z,41
2018-01-25T23:02:07.961Z,41.2
2018-01-25T23:04:05.718Z,41
2018-01-25T23:06:05.488Z,41.2
2018-01-25T23:08:07.797Z,41
2018-01-25T23:10:11.008Z,41.2
2018-01-25T23:12:05.821Z,41.2
2018-01-25T23:14:05.678Z,41.2
2018-01-25T23:16:05.484Z,41
2018-01-25T23:18:08.607Z,41.2
2018-01-25T23:20:05.385Z,41.2
2018-01-25T23:22:07.713Z,41.2
2018-01-25T23:24:06.042Z,41.2
2018-01-25T23:26:06.009Z,41.2
2018-01-25T23:28:08.294Z,41
2018-01-25T23:30:05.060Z,41.2
2018-01-25T23:32:05.885Z,41
2018-01-25T23:34:05.655Z,41.3
2018-01-25T23:36:05.396Z,41.1
2018-01-25T23:38:05.225Z,41.1
2018-01-25T23:40:11.028Z,41.1
2018-01-25T23:42:05.794Z,41
2018-01-25T23:44:06.051Z,41
2018-01-25T23:46:13.304Z,41
2018-01-25T23:48:07.609Z,41
2018-01-25T23:50:05.418Z,41
2018-01-25T23:52:05.427Z,41.1
2018-01-25T23:54:05.707Z,41
2018-01-25T23:56:05.495Z,41
2018-01-25T23:58:05.795Z,41
